Time;durP1;ratioP1;P1;durP2;ratioP2;P2;SDS_P1;SDS_P2;PMS_P1;PMS_P2;Temp;Humidity;BMP_temperature;BMP_pressure;BME280_temperature;BME280_humidity;BME280_pressure;Samples;Min_cycle;Max_cycle;Signal;HPM_P1;HPM_P2
2021/07/02 00:00:05;;;;;;;62.57;28.27;;;;;;;;;;5113310;28;20465;-51
2021/07/02 00:02:31;;;;;;;55.00;26.83;;;;;;;;;;5113291;28;20434;-51
2021/07/02 00:04:57;;;;;;;48.87;25.83;;;;;;;;;;5112879;28;20492;-52
2021/07/02 00:07:23;;;;;;;57.10;27.93;;;;;;;;;;5113139;28;20481;-52
2021/07/02 00:09:49;;;;;;;61.00;30.00;;;;;;;;;;5113099;28;20890;-52
2021/07/02 00:12:14;;;;;;;68.13;29.60;;;;;;;;;;5113025;28;20819;-51
2021/07/02 00:14:40;;;;;;;69.23;26.40;;;;;;;;;;5094387;28;20807;-51
2021/07/02 00:17:06;;;;;;;45.23;23.93;;;;;;;;;;5094925;28;20500;-52
2021/07/02 00:19:33;;;;;;;69.90;28.20;;;;;;;;;;5113104;28;20404;-51
2021/07/02 00:21:59;;;;;;;58.90;30.27;;;;;;;;;;5113087;28;20412;-52
2021/07/02 00:24:25;;;;;;;58.83;29.27;;;;;;;;;;5111933;28;20843;-53
2021/07/02 00:26:51;;;;;;;54.50;28.23;;;;;;;;;;5112928;28;20406;-52
2021/07/02 00:29:17;;;;;;;49.87;28.37;;;;;;;;;;5112891;28;20910;-51
2021/07/02 00:31:43;;;;;;;56.03;27.50;;;;;;;;;;5113065;28;20827;-51
2021/07/02 00:34:09;;;;;;;46.90;25.17;;;;;;;;;;5112465;28;20435;-51
2021/07/02 00:36:35;;;;;;;51.77;26.83;;;;;;;;;;5112957;28;20826;-51
2021/07/02 00:39:01;;;;;;;52.83;27.97;;;;;;;;;;5113286;28;20411;-51
2021/07/02 00:41:27;;;;;;;65.27;28.47;;;;;;;;;;5112741;28;20436;-51
2021/07/02 00:43:54;;;;;;;60.17;28.40;;;;;;;;;;5112099;28;20400;-51
2021/07/02 00:46:21;;;;;;;59.90;27.70;;;;;;;;;;5112516;28;20828;-52
2021/07/02 00:48:47;;;;;;;60.67;28.80;;;;;;;;;;5112580;28;20891;-51
2021/07/02 00:51:13;;;;;;;61.13;28.27;;;;;;;;;;5112430;28;20963;-51
2021/07/02 00:53:41;;;;;;;61.77;30.47;;;;;;;;;;5112080;28;20770;-51
2021/07/02 00:56:07;;;;;;;59.50;29.07;;;;;;;;;;5112308;28;20468;-51
2021/07/02 00:58:33;;;;;;;63.97;32.37;;;;;;;;;;5112520;28;20382;-51
2021/07/02 01:01:00;;;;;;;58.73;29.37;;;;;;;;;;5112691;28;20789;-51
2021/07/02 01:03:26;;;;;;;59.50;28.87;;;;;;;;;;5112266;28;20462;-51
2021/07/02 01:05:52;;;;;;;63.83;30.40;;;;;;;;;;5112151;28;20467;-51
2021/07/02 01:08:18;;;;;;;54.93;29.43;;;;;;;;;;5112246;28;20410;-51
2021/07/02 01:10:44;;;;;;;58.33;29.43;;;;;;;;;;5112319;28;21101;-51
2021/07/02 01:13:10;;;;;;;61.83;28.00;;;;;;;;;;5112216;28;20450;-51
2021/07/02 01:15:36;;;;;;;61.53;29.57;;;;;;;;;;5112130;28;20426;-51
2021/07/02 01:18:09;;;;;;;62.67;30.00;;;;;;;;;;5111950;28;20818;-51
2021/07/02 01:20:35;;;;;;;64.60;30.83;;;;;;;;;;5112391;28;20399;-51
2021/07/02 01:23:01;;;;;;;61.87;30.53;;;;;;;;;;5111715;28;20381;-51
2021/07/02 01:25:30;;;;;;;60.27;29.97;;;;;;;;;;5111619;28;20635;-51
2021/07/02 01:27:56;;;;;;;51.47;27.90;;;;;;;;;;5112099;28;20376;-52
2021/07/02 01:30:22;;;;;;;58.80;30.50;;;;;;;;;;5111698;28;20895;-52
2021/07/02 01:32:48;;;;;;;59.60;28.03;;;;;;;;;;5111852;28;20395;-51
2021/07/02 01:35:14;;;;;;;57.73;28.83;;;;;;;;;;5111472;28;20776;-51
2021/07/02 01:37:40;;;;;;;67.17;30.13;;;;;;;;;;5111931;28;20595;-51
2021/07/02 01:40:06;;;;;;;60.93;28.77;;;;;;;;;;5112537;28;20731;-51
2021/07/02 01:42:32;;;;;;;61.37;28.47;;;;;;;;;;5112120;28;20428;-51
2021/07/02 01:44:58;;;;;;;63.33;30.53;;;;;;;;;;5111368;28;20447;-51
2021/07/02 01:47:24;;;;;;;86.73;33.50;;;;;;;;;;5112130;28;21079;-51
2021/07/02 01:49:50;;;;;;;70.77;30.73;;;;;;;;;;5111658;28;20372;-51
2021/07/02 01:52:16;;;;;;;66.73;32.60;;;;;;;;;;5111807;28;20828;-51
2021/07/02 01:54:43;;;;;;;63.10;30.70;;;;;;;;;;5111039;28;20394;-51
2021/07/02 01:57:12;;;;;;;66.70;30.80;;;;;;;;;;5111795;28;20421;-51
2021/07/02 01:59:37;;;;;;;63.13;30.77;;;;;;;;;;5111631;28;20892;-52
2021/07/02 02:02:04;;;;;;;56.00;28.27;;;;;;;;;;5111383;28;20393;-51
2021/07/02 02:04:29;;;;;;;62.17;29.47;;;;;;;;;;5110956;28;20505;-51
2021/07/02 02:06:55;;;;;;;70.47;30.20;;;;;;;;;;5111438;28;20500;-51
2021/07/02 02:09:22;;;;;;;68.27;31.00;;;;;;;;;;5111185;28;20413;-52
2021/07/02 02:11:47;;;;;;;64.87;31.63;;;;;;;;;;5111399;28;20426;-52
2021/07/02 02:14:13;;;;;;;61.23;29.53;;;;;;;;;;5111228;28;20405;-52
2021/07/02 02:16:41;;;;;;;68.33;31.33;;;;;;;;;;5111379;28;20377;-52
2021/07/02 02:19:07;;;;;;;65.87;32.10;;;;;;;;;;5111633;28;20400;-51
2021/07/02 02:21:33;;;;;;;57.77;29.00;;;;;;;;;;5111374;28;20370;-51
2021/07/02 02:23:59;;;;;;;65.50;28.20;;;;;;;;;;5110928;28;20410;-51
2021/07/02 02:26:25;;;;;;;76.27;33.07;;;;;;;;;;5111378;28;20460;-51
2021/07/02 02:28:51;;;;;;;71.57;31.67;;;;;;;;;;5111411;28;20406;-51
2021/07/02 02:31:17;;;;;;;72.40;32.60;;;;;;;;;;5111552;28;20406;-51
2021/07/02 02:33:43;;;;;;;69.90;31.73;;;;;;;;;;5111231;28;20789;-51
2021/07/02 02:36:09;;;;;;;69.50;31.77;;;;;;;;;;5111671;28;20486;-51
2021/07/02 02:38:35;;;;;;;64.00;30.70;;;;;;;;;;5111375;28;20402;-51
2021/07/02 02:41:01;;;;;;;59.50;29.80;;;;;;;;;;5111398;28;20372;-51
2021/07/02 02:43:27;;;;;;;67.73;29.27;;;;;;;;;;5111338;28;20878;-51
2021/07/02 02:45:53;;;;;;;79.67;32.13;;;;;;;;;;5110860;28;20457;-51
2021/07/02 02:48:19;;;;;;;66.97;29.97;;;;;;;;;;5113008;28;20377;-51
2021/07/02 02:50:45;;;;;;;68.50;30.30;;;;;;;;;;5115074;28;20416;-51
2021/07/02 02:53:12;;;;;;;66.80;30.33;;;;;;;;;;5114723;28;20403;-51
2021/07/02 02:55:38;;;;;;;68.70;30.90;;;;;;;;;;5114154;28;20411;-51
2021/07/02 02:58:04;;;;;;;76.33;29.40;;;;;;;;;;5114634;28;20371;-50
2021/07/02 03:00:30;;;;;;;73.10;30.23;;;;;;;;;;5114703;28;20909;-51
2021/07/02 03:02:56;;;;;;;64.23;28.93;;;;;;;;;;5114606;28;20416;-51
2021/07/02 03:05:22;;;;;;;72.47;29.70;;;;;;;;;;5095560;28;20436;-51
2021/07/02 03:07:48;;;;;;;62.70;30.30;;;;;;;;;;5114562;28;20411;-51
2021/07/02 03:10:14;;;;;;;78.07;31.30;;;;;;;;;;5114300;28;20507;-51
2021/07/02 03:12:39;;;;;;;75.43;33.00;;;;;;;;;;5113979;28;20385;-52
2021/07/02 03:15:06;;;;;;;64.10;31.33;;;;;;;;;;5113860;28;20449;-53
2021/07/02 03:17:32;;;;;;;81.00;32.47;;;;;;;;;;5114463;28;20484;-51
2021/07/02 03:19:58;;;;;;;74.03;30.77;;;;;;;;;;5095674;28;20749;-51
2021/07/02 03:22:24;;;;;;;73.90;31.00;;;;;;;;;;5114094;28;20473;-52
2021/07/02 03:24:51;;;;;;;76.87;32.67;;;;;;;;;;5113924;28;20551;-52
2021/07/02 03:27:16;;;;;;;73.97;31.47;;;;;;;;;;5113827;28;20401;-51
2021/07/02 03:29:42;;;;;;;63.20;30.27;;;;;;;;;;5114214;28;21031;-51
2021/07/02 03:32:09;;;;;;;70.30;30.50;;;;;;;;;;5113920;28;20399;-51
2021/07/02 03:34:35;;;;;;;66.70;31.00;;;;;;;;;;5113038;28;20791;-51
2021/07/02 03:37:01;;;;;;;78.30;30.33;;;;;;;;;;5113716;28;20411;-51
2021/07/02 03:39:27;;;;;;;66.70;30.30;;;;;;;;;;5114220;28;20402;-51
2021/07/02 03:41:53;;;;;;;65.90;31.33;;;;;;;;;;5113820;28;20405;-51
2021/07/02 03:44:19;;;;;;;65.53;30.73;;;;;;;;;;5113482;28;20482;-51
2021/07/02 03:46:45;;;;;;;59.30;30.27;;;;;;;;;;5113321;28;20423;-51
2021/07/02 03:49:11;;;;;;;78.43;32.67;;;;;;;;;;5113352;28;20399;-52
2021/07/02 03:51:37;;;;;;;71.57;31.10;;;;;;;;;;5113548;28;20402;-52
2021/07/02 03:54:03;;;;;;;65.23;30.47;;;;;;;;;;5112821;28;20397;-51
2021/07/02 03:56:29;;;;;;;64.20;30.63;;;;;;;;;;5113248;28;20372;-51
2021/07/02 03:58:55;;;;;;;70.23;30.67;;;;;;;;;;5113021;28;20383;-51
2021/07/02 04:01:21;;;;;;;66.33;28.60;;;;;;;;;;5113109;28;20405;-51
2021/07/02 04:03:47;;;;;;;69.70;31.53;;;;;;;;;;5094463;28;20411;-51
2021/07/02 04:06:13;;;;;;;68.47;30.13;;;;;;;;;;5113010;28;20481;-51
2021/07/02 04:08:39;;;;;;;64.67;30.70;;;;;;;;;;5113000;28;20427;-51
2021/07/02 04:11:07;;;;;;;55.90;29.03;;;;;;;;;;5112668;28;20888;-51
2021/07/02 04:13:33;;;;;;;67.97;30.73;;;;;;;;;;5112540;28;20743;-51
2021/07/02 04:15:59;;;;;;;56.20;28.27;;;;;;;;;;5112575;28;20449;-52
2021/07/02 04:18:25;;;;;;;68.97;31.60;;;;;;;;;;5094553;28;20448;-52
2021/07/02 04:20:51;;;;;;;61.90;30.57;;;;;;;;;;5094435;28;20811;-51
2021/07/02 04:23:17;;;;;;;68.90;29.30;;;;;;;;;;5112801;28;20381;-52
2021/07/02 04:25:43;;;;;;;61.70;28.40;;;;;;;;;;5093942;28;21048;-52
2021/07/02 04:28:09;;;;;;;66.03;29.10;;;;;;;;;;5112509;28;20391;-52
2021/07/02 04:30:35;;;;;;;69.43;28.83;;;;;;;;;;5112535;28;20486;-51
2021/07/02 04:33:01;;;;;;;61.80;27.50;;;;;;;;;;5112447;28;20434;-52
2021/07/02 04:35:27;;;;;;;53.30;26.67;;;;;;;;;;5112334;28;20458;-53
2021/07/02 04:37:53;;;;;;;57.53;25.97;;;;;;;;;;5112306;28;20409;-52
2021/07/02 04:40:19;;;;;;;52.60;28.40;;;;;;;;;;5112455;28;20374;-53
2021/07/02 04:42:45;;;;;;;50.30;26.87;;;;;;;;;;5112668;28;20387;-51
2021/07/02 04:45:11;;;;;;;53.67;26.30;;;;;;;;;;5112146;28;20837;-51
2021/07/02 04:47:37;;;;;;;50.87;25.50;;;;;;;;;;5112347;28;20837;-52
2021/07/02 04:50:04;;;;;;;57.40;27.17;;;;;;;;;;5112354;28;20404;-51
2021/07/02 04:52:30;;;;;;;54.43;27.07;;;;;;;;;;5112248;28;20395;-51
2021/07/02 04:54:56;;;;;;;58.47;26.30;;;;;;;;;;5111514;28;20396;-51
2021/07/02 04:57:22;;;;;;;61.73;27.00;;;;;;;;;;5112459;28;20516;-51
2021/07/02 04:59:50;;;;;;;55.30;26.90;;;;;;;;;;5111873;28;20407;-51
2021/07/02 05:02:17;;;;;;;46.30;25.57;;;;;;;;;;5112096;28;20379;-51
2021/07/02 05:04:42;;;;;;;56.37;26.57;;;;;;;;;;5111257;28;20513;-51
2021/07/02 05:07:08;;;;;;;57.87;27.60;;;;;;;;;;5111640;28;20381;-51
2021/07/02 05:09:35;;;;;;;52.73;29.07;;;;;;;;;;5111725;28;20755;-51
2021/07/02 05:12:02;;;;;;;53.03;26.40;;;;;;;;;;5111342;28;20494;-51
2021/07/02 05:14:28;;;;;;;55.60;27.80;;;;;;;;;;5111161;28;20927;-51
2021/07/02 05:16:54;;;;;;;54.33;26.50;;;;;;;;;;5111572;28;20818;-51
2021/07/02 05:19:20;;;;;;;54.67;26.97;;;;;;;;;;5111793;28;20377;-51
2021/07/02 05:21:46;;;;;;;61.33;28.00;;;;;;;;;;5111621;28;20909;-51
2021/07/02 05:24:12;;;;;;;56.23;28.63;;;;;;;;;;5111303;28;20961;-51
2021/07/02 05:26:38;;;;;;;49.20;26.50;;;;;;;;;;5111658;28;20446;-51
2021/07/02 05:29:04;;;;;;;45.57;24.83;;;;;;;;;;5111642;28;20421;-51
2021/07/02 05:31:30;;;;;;;53.83;27.23;;;;;;;;;;5111556;28;20380;-51
2021/07/02 05:33:56;;;;;;;48.20;26.73;;;;;;;;;;5111340;28;20393;-51
2021/07/02 05:36:22;;;;;;;49.93;25.00;;;;;;;;;;5111919;28;20543;-52
2021/07/02 05:38:48;;;;;;;55.00;26.63;;;;;;;;;;5111967;28;20397;-51
2021/07/02 05:41:15;;;;;;;45.40;24.10;;;;;;;;;;5111250;28;20905;-51
2021/07/02 05:43:41;;;;;;;54.73;25.00;;;;;;;;;;5092802;28;20476;-51
2021/07/02 05:46:07;;;;;;;49.10;24.53;;;;;;;;;;5110730;28;20512;-51
2021/07/02 05:48:33;;;;;;;48.90;25.20;;;;;;;;;;5111395;28;20771;-51
2021/07/02 05:50:59;;;;;;;50.70;28.30;;;;;;;;;;5110366;28;20398;-52
2021/07/02 05:53:25;;;;;;;51.30;25.03;;;;;;;;;;5092127;28;20464;-52
2021/07/02 05:55:51;;;;;;;54.37;25.27;;;;;;;;;;5109956;28;20501;-52
2021/07/02 05:58:17;;;;;;;44.27;24.47;;;;;;;;;;5110681;28;20438;-51
2021/07/02 06:00:43;;;;;;;40.63;24.50;;;;;;;;;;5110355;28;20381;-52
2021/07/02 06:03:09;;;;;;;49.37;25.20;;;;;;;;;;5110219;28;20403;-52
2021/07/02 06:05:35;;;;;;;50.20;24.10;;;;;;;;;;5110136;28;20450;-51
2021/07/02 06:08:01;;;;;;;45.83;22.93;;;;;;;;;;5110170;28;20377;-51
2021/07/02 06:10:27;;;;;;;39.33;23.23;;;;;;;;;;5110258;28;20382;-52
2021/07/02 06:12:54;;;;;;;38.20;22.47;;;;;;;;;;5110489;28;20433;-52
2021/07/02 06:15:21;;;;;;;42.13;24.27;;;;;;;;;;5110404;28;20404;-52
2021/07/02 06:17:48;;;;;;;43.13;23.50;;;;;;;;;;5110518;28;20428;-51
2021/07/02 06:20:15;;;;;;;42.33;23.87;;;;;;;;;;5110658;28;20915;-51
2021/07/02 06:22:42;;;;;;;35.47;21.57;;;;;;;;;;5111223;28;20381;-51
2021/07/02 06:25:09;;;;;;;40.50;20.77;;;;;;;;;;5114095;28;20466;-52
2021/07/02 06:27:35;;;;;;;40.43;21.70;;;;;;;;;;5114399;28;20385;-52
2021/07/02 06:30:01;;;;;;;34.83;21.63;;;;;;;;;;5113398;28;20435;-52
2021/07/02 06:32:27;;;;;;;36.23;21.00;;;;;;;;;;5114404;28;20787;-52
2021/07/02 06:34:53;;;;;;;33.00;18.33;;;;;;;;;;5114085;28;20526;-52
2021/07/02 06:37:19;;;;;;;33.87;20.17;;;;;;;;;;5114271;28;20950;-51
2021/07/02 06:39:45;;;;;;;36.57;19.50;;;;;;;;;;5114401;28;20402;-52
2021/07/02 06:42:11;;;;;;;34.13;19.10;;;;;;;;;;5114188;28;20384;-52
2021/07/02 06:44:37;;;;;;;26.00;18.20;;;;;;;;;;5114019;28;20454;-52
2021/07/02 06:47:03;;;;;;;26.17;17.53;;;;;;;;;;5114498;28;20381;-52
2021/07/02 06:49:29;;;;;;;30.50;17.23;;;;;;;;;;5114194;28;20844;-52
2021/07/02 06:51:55;;;;;;;31.93;17.93;;;;;;;;;;5113936;28;20395;-52
2021/07/02 06:54:21;;;;;;;36.47;20.50;;;;;;;;;;5113705;28;20910;-52
2021/07/02 06:57:03;;;;;;;23.67;15.97;;;;;;;;;;5113792;28;20417;-52
2021/07/02 06:59:31;;;;;;;27.90;17.40;;;;;;;;;;5114071;28;20372;-52
2021/07/02 07:01:57;;;;;;;25.70;16.17;;;;;;;;;;5113905;28;20405;-52
2021/07/02 07:04:23;;;;;;;24.43;16.07;;;;;;;;;;5113542;28;20458;-52
2021/07/02 07:06:49;;;;;;;29.57;17.30;;;;;;;;;;5113730;28;20378;-52
2021/07/02 07:09:15;;;;;;;27.73;16.80;;;;;;;;;;5113629;28;20405;-52
2021/07/02 07:11:41;;;;;;;31.50;18.13;;;;;;;;;;5113771;28;20376;-52
2021/07/02 07:14:07;;;;;;;27.87;17.50;;;;;;;;;;5113308;28;20475;-52
2021/07/02 07:16:33;;;;;;;28.80;18.10;;;;;;;;;;5113636;28;20433;-52
2021/07/02 07:18:59;;;;;;;23.60;16.77;;;;;;;;;;5113394;28;20894;-52
2021/07/02 07:21:25;;;;;;;31.83;18.70;;;;;;;;;;5113430;28;20902;-52
2021/07/02 07:23:51;;;;;;;29.37;18.87;;;;;;;;;;5112939;28;20465;-52
2021/07/02 07:26:18;;;;;;;30.63;17.60;;;;;;;;;;5113373;28;20621;-52
2021/07/02 07:28:44;;;;;;;33.70;18.73;;;;;;;;;;5113219;28;20405;-52
2021/07/02 07:31:10;;;;;;;27.67;18.03;;;;;;;;;;5113301;28;20402;-53
2021/07/02 07:33:39;;;;;;;26.00;16.30;;;;;;;;;;5112538;28;20390;-52
2021/07/02 07:36:08;;;;;;;24.50;15.50;;;;;;;;;;5113197;28;20410;-52
2021/07/02 07:38:34;;;;;;;24.97;14.90;;;;;;;;;;5113119;28;20471;-52
2021/07/02 07:41:00;;;;;;;30.07;15.50;;;;;;;;;;5113104;28;20880;-52
2021/07/02 07:43:27;;;;;;;22.77;13.63;;;;;;;;;;5112936;28;20455;-52
2021/07/02 07:45:53;;;;;;;21.90;13.80;;;;;;;;;;5112686;28;20526;-52
2021/07/02 07:48:19;;;;;;;25.70;13.20;;;;;;;;;;5112967;28;20383;-52
2021/07/02 07:50:49;;;;;;;20.10;11.83;;;;;;;;;;5112789;28;20395;-52
2021/07/02 07:53:15;;;;;;;18.93;11.20;;;;;;;;;;5112823;28;20398;-52
2021/07/02 07:55:41;;;;;;;19.13;11.90;;;;;;;;;;5112065;28;20459;-52
2021/07/02 07:58:07;;;;;;;16.63;10.13;;;;;;;;;;5110322;28;20405;-52
2021/07/02 08:00:33;;;;;;;13.87;9.43;;;;;;;;;;5109377;28;20408;-52
2021/07/02 08:03:00;;;;;;;13.13;9.10;;;;;;;;;;5111442;28;20427;-52
2021/07/02 08:05:27;;;;;;;14.40;8.93;;;;;;;;;;5111708;28;20442;-52
2021/07/02 08:07:53;;;;;;;14.23;10.00;;;;;;;;;;5110065;28;20890;-52
2021/07/02 08:10:20;;;;;;;13.83;8.03;;;;;;;;;;5110428;28;20408;-52
2021/07/02 08:12:46;;;;;;;12.07;7.70;;;;;;;;;;5112305;28;20431;-52
2021/07/02 08:15:13;;;;;;;11.07;8.20;;;;;;;;;;5110041;28;20426;-52
2021/07/02 08:17:39;;;;;;;12.40;7.20;;;;;;;;;;5111562;28;20409;-52
2021/07/02 08:20:06;;;;;;;7.87;6.60;;;;;;;;;;5110828;28;20740;-52
2021/07/02 08:22:32;;;;;;;9.53;8.07;;;;;;;;;;5110852;28;20391;-52
2021/07/02 08:24:58;;;;;;;11.97;7.57;;;;;;;;;;5110405;28;20452;-52
2021/07/02 08:27:25;;;;;;;12.53;6.67;;;;;;;;;;5110962;28;20469;-52
2021/07/02 08:29:52;;;;;;;12.93;6.80;;;;;;;;;;5110831;28;20423;-52
2021/07/02 08:32:18;;;;;;;7.00;6.30;;;;;;;;;;5110934;28;20427;-52
2021/07/02 08:34:44;;;;;;;5.37;4.87;;;;;;;;;;5111390;28;20486;-52
2021/07/02 08:37:10;;;;;;;6.23;5.60;;;;;;;;;;5112030;28;20402;-53
2021/07/02 08:39:36;;;;;;;7.30;5.07;;;;;;;;;;5112003;28;20408;-53
2021/07/02 08:42:05;;;;;;;10.73;4.90;;;;;;;;;;5111957;28;20402;-53
2021/07/02 08:44:35;;;;;;;7.73;4.37;;;;;;;;;;5111678;28;20438;-53
2021/07/02 08:47:01;;;;;;;4.30;3.97;;;;;;;;;;5110985;28;20438;-53
2021/07/02 08:49:31;;;;;;;10.80;4.20;;;;;;;;;;5111789;28;20421;-53
2021/07/02 08:51:58;;;;;;;4.13;3.77;;;;;;;;;;5111840;28;20860;-53
2021/07/02 08:54:24;;;;;;;5.13;4.03;;;;;;;;;;5111788;28;20783;-53
2021/07/02 08:56:56;;;;;;;4.03;3.70;;;;;;;;;;5111753;28;20424;-53
2021/07/02 08:59:26;;;;;;;5.30;3.40;;;;;;;;;;5112178;28;20726;-53
2021/07/02 09:01:53;;;;;;;3.87;3.43;;;;;;;;;;5111467;28;20430;-53
2021/07/02 09:04:23;;;;;;;3.53;2.90;;;;;;;;;;5111164;28;20453;-53
2021/07/02 09:07:10;;;;;;;3.27;2.97;;;;;;;;;;5111499;28;20410;-54
2021/07/02 09:09:45;;;;;;;2.90;2.70;;;;;;;;;;5111424;28;20417;-54
2021/07/02 09:12:12;;;;;;;3.03;2.73;;;;;;;;;;5111264;28;20554;-53
2021/07/02 09:14:38;;;;;;;5.63;3.33;;;;;;;;;;5092673;28;20434;-54
2021/07/02 09:17:10;;;;;;;4.50;2.97;;;;;;;;;;5111270;28;20411;-53
2021/07/02 09:19:36;;;;;;;2.80;2.60;;;;;;;;;;5111263;28;20460;-52
2021/07/02 09:22:17;;;;;;;3.60;3.03;;;;;;;;;;5111214;28;20762;-52
2021/07/02 09:24:48;;;;;;;3.23;2.20;;;;;;;;;;5110806;28;20453;-53
2021/07/02 09:27:30;;;;;;;3.07;2.80;;;;;;;;;;5111201;28;20402;-53
2021/07/02 09:30:07;;;;;;;3.63;2.93;;;;;;;;;;5111203;28;20488;-53
2021/07/02 09:32:33;;;;;;;4.90;3.00;;;;;;;;;;5111055;28;20402;-53
2021/07/02 09:35:02;;;;;;;2.80;2.70;;;;;;;;;;5110690;28;20809;-53
2021/07/02 09:37:36;;;;;;;6.60;2.73;;;;;;;;;;5111026;28;20946;-53
2021/07/02 09:40:13;;;;;;;2.83;2.63;;;;;;;;;;5109533;28;20547;-54
2021/07/02 09:42:39;;;;;;;2.30;2.07;;;;;;;;;;5110991;28;20410;-54
2021/07/02 09:45:18;;;;;;;2.40;2.20;;;;;;;;;;5108307;28;20537;-53
2021/07/02 09:47:45;;;;;;;2.30;2.20;;;;;;;;;;5100754;28;20424;-54
2021/07/02 09:50:26;;;;;;;3.90;3.53;;;;;;;;;;5111209;28;20386;-54
2021/07/02 09:52:54;;;;;;;3.23;2.50;;;;;;;;;;5111040;28;20469;-54
2021/07/02 09:55:21;;;;;;;4.90;3.20;;;;;;;;;;5110533;28;20407;-53
2021/07/02 09:57:47;;;;;;;2.67;2.43;;;;;;;;;;5113155;28;20911;-53
2021/07/02 10:00:15;;;;;;;2.77;2.57;;;;;;;;;;5115013;28;20392;-54
2021/07/02 10:02:51;;;;;;;3.30;2.40;;;;;;;;;;5114854;28;20416;-53
2021/07/02 10:05:17;;;;;;;3.20;2.90;;;;;;;;;;5114607;28;20950;-54
2021/07/02 10:07:55;;;;;;;5.10;3.03;;;;;;;;;;5114782;28;20402;-54
2021/07/02 10:10:21;;;;;;;3.07;2.80;;;;;;;;;;5114774;28;20738;-54
2021/07/02 10:12:47;;;;;;;3.10;2.90;;;;;;;;;;5114802;28;20408;-54
2021/07/02 10:15:13;;;;;;;6.37;2.80;;;;;;;;;;5114258;28;20423;-53
2021/07/02 10:17:39;;;;;;;2.67;2.47;;;;;;;;;;5114611;28;20485;-53
2021/07/02 10:20:06;;;;;;;3.63;3.33;;;;;;;;;;5114544;28;20398;-53
2021/07/02 10:22:32;;;;;;;4.00;3.00;;;;;;;;;;5114595;28;20406;-53
2021/07/02 10:24:59;;;;;;;4.83;3.40;;;;;;;;;;5113893;28;20441;-53
2021/07/02 10:27:25;;;;;;;5.70;3.50;;;;;;;;;;5114607;28;20406;-53
2021/07/02 10:29:51;;;;;;;3.40;3.10;;;;;;;;;;5114392;28;20395;-53
2021/07/02 10:32:19;;;;;;;4.50;3.43;;;;;;;;;;5114371;28;20398;-54
2021/07/02 10:34:45;;;;;;;5.60;3.10;;;;;;;;;;5113978;28;20442;-54
2021/07/02 10:37:11;;;;;;;3.33;3.10;;;;;;;;;;5114327;28;20409;-54
2021/07/02 10:39:43;;;;;;;4.10;3.30;;;;;;;;;;5114182;28;21130;-53
2021/07/02 10:42:13;;;;;;;3.97;3.77;;;;;;;;;;5114210;28;20445;-53
2021/07/02 10:45:00;;;;;;;6.57;3.87;;;;;;;;;;5113835;28;20456;-53
2021/07/02 10:47:27;;;;;;;4.67;3.40;;;;;;;;;;5100449;28;20419;-53
2021/07/02 10:49:53;;;;;;;6.57;3.60;;;;;;;;;;5096191;28;20407;-53
2021/07/02 10:52:23;;;;;;;4.37;4.07;;;;;;;;;;5114172;28;20395;-53
2021/07/02 10:54:50;;;;;;;5.43;4.20;;;;;;;;;;5113872;28;20831;-52
2021/07/02 10:57:18;;;;;;;4.00;3.70;;;;;;;;;;5114015;28;20402;-53
2021/07/02 10:59:50;;;;;;;4.17;3.87;;;;;;;;;;5113988;28;20445;-53
2021/07/02 11:02:20;;;;;;;4.73;3.90;;;;;;;;;;5113781;28;20771;-53
2021/07/02 11:04:50;;;;;;;4.50;4.10;;;;;;;;;;5113278;28;21081;-53
2021/07/02 11:07:16;;;;;;;5.07;4.57;;;;;;;;;;5113750;28;20438;-53
2021/07/02 11:09:51;;;;;;;5.00;4.00;;;;;;;;;;5112752;28;20425;-53
2021/07/02 11:12:20;;;;;;;5.17;4.23;;;;;;;;;;5113603;28;20397;-53
2021/07/02 11:14:55;;;;;;;4.63;3.80;;;;;;;;;;5113474;28;20482;-51
2021/07/02 11:17:24;;;;;;;4.77;4.37;;;;;;;;;;5113507;28;20809;-51
2021/07/02 11:20:12;;;;;;;6.60;4.70;;;;;;;;;;5113479;28;20464;-53
2021/07/02 11:22:44;;;;;;;4.20;3.63;;;;;;;;;;5100059;28;20410;-52
2021/07/02 11:25:27;;;;;;;4.17;3.77;;;;;;;;;;5112900;28;21178;-51
2021/07/02 11:27:54;;;;;;;4.13;3.73;;;;;;;;;;5113292;28;20775;-53
2021/07/02 11:30:21;;;;;;;7.40;4.30;;;;;;;;;;5113451;28;20456;-53
2021/07/02 11:32:48;;;;;;;5.57;3.43;;;;;;;;;;5094996;28;20836;-53
2021/07/02 11:35:19;;;;;;;5.47;4.70;;;;;;;;;;5112642;28;20434;-52
2021/07/02 11:38:03;;;;;;;4.97;3.93;;;;;;;;;;5113154;28;20429;-52
2021/07/02 11:40:30;;;;;;;4.53;4.13;;;;;;;;;;5113022;28;20508;-52
2021/07/02 11:42:57;;;;;;;5.20;3.83;;;;;;;;;;5113090;28;20508;-52
2021/07/02 11:45:51;;;;;;;4.87;4.33;;;;;;;;;;5112566;28;20865;-52
2021/07/02 11:48:22;;;;;;;8.40;4.10;;;;;;;;;;5109922;28;20411;-53
2021/07/02 11:50:51;;;;;;;5.03;4.53;;;;;;;;;;5095099;28;20485;-52
2021/07/02 11:53:36;;;;;;;6.70;5.13;;;;;;;;;;5112649;28;20429;-52
2021/07/02 11:56:03;;;;;;;5.30;4.90;;;;;;;;;;5112680;28;20471;-52
2021/07/02 11:58:30;;;;;;;5.20;4.77;;;;;;;;;;5112704;28;20402;-52
2021/07/02 12:00:58;;;;;;;5.33;4.70;;;;;;;;;;5112670;28;20406;-52
2021/07/02 12:03:24;;;;;;;6.00;5.50;;;;;;;;;;5094278;28;20406;-52
2021/07/02 12:05:57;;;;;;;6.10;5.07;;;;;;;;;;5112327;28;20557;-52
2021/07/02 12:08:24;;;;;;;5.90;5.30;;;;;;;;;;5112540;28;20433;-54
2021/07/02 12:11:01;;;;;;;4.90;4.27;;;;;;;;;;5112543;28;20399;-52
2021/07/02 12:13:32;;;;;;;4.60;4.20;;;;;;;;;;5112263;28;20410;-52
2021/07/02 12:16:12;;;;;;;5.07;4.40;;;;;;;;;;5112238;28;20454;-53
2021/07/02 12:18:38;;;;;;;6.50;4.90;;;;;;;;;;5112344;28;20402;-55
2021/07/02 12:21:06;;;;;;;8.97;5.37;;;;;;;;;;5112697;28;20399;-53
2021/07/02 12:23:33;;;;;;;5.33;4.23;;;;;;;;;;5112394;28;20833;-52
2021/07/02 12:26:19;;;;;;;4.40;4.00;;;;;;;;;;5111913;28;20446;-53
2021/07/02 12:29:00;;;;;;;4.60;4.20;;;;;;;;;;5111046;28;20846;-52
2021/07/02 12:31:38;;;;;;;5.40;4.10;;;;;;;;;;5112359;28;20753;-52
2021/07/02 12:34:06;;;;;;;4.87;4.13;;;;;;;;;;5111570;28;20438;-54
2021/07/02 12:36:32;;;;;;;5.30;4.80;;;;;;;;;;5112065;28;20486;-52
2021/07/02 12:39:12;;;;;;;4.97;3.90;;;;;;;;;;5111962;28;21065;-52
2021/07/02 12:41:48;;;;;;;6.07;4.83;;;;;;;;;;5112029;28;20585;-51
2021/07/02 12:44:18;;;;;;;4.40;4.00;;;;;;;;;;5111390;28;20449;-53
2021/07/02 12:46:45;;;;;;;5.00;3.90;;;;;;;;;;5111761;28;20429;-52
2021/07/02 12:49:28;;;;;;;5.00;4.60;;;;;;;;;;5111785;28;20410;-52
2021/07/02 12:54:47;;;;;;;10.10;5.90;;;;;;;;;;5111330;28;20418;-52
2021/07/02 12:57:17;;;;;;;5.00;4.60;;;;;;;;;;5110393;28;20403;-52
2021/07/02 12:59:46;;;;;;;5.30;4.87;;;;;;;;;;5111256;28;20402;-52
2021/07/02 13:02:12;;;;;;;5.37;4.90;;;;;;;;;;5111514;28;20922;-52
2021/07/02 13:04:44;;;;;;;5.17;4.87;;;;;;;;;;5111048;28;20517;-52
2021/07/02 13:07:11;;;;;;;5.17;4.77;;;;;;;;;;5111725;28;20410;-52
2021/07/02 13:09:37;;;;;;;9.00;5.77;;;;;;;;;;5111689;28;20399;-54
2021/07/02 13:12:09;;;;;;;8.30;4.77;;;;;;;;;;5111182;28;20406;-54
2021/07/02 13:14:37;;;;;;;5.77;4.77;;;;;;;;;;5110844;28;20425;-52
2021/07/02 13:17:03;;;;;;;6.07;5.10;;;;;;;;;;5111117;28;20395;-53
2021/07/02 13:19:30;;;;;;;5.37;4.87;;;;;;;;;;5110704;28;20853;-53
2021/07/02 13:22:10;;;;;;;7.20;4.90;;;;;;;;;;5110851;28;20410;-53
2021/07/02 13:24:36;;;;;;;5.40;4.97;;;;;;;;;;5110671;28;20445;-52
2021/07/02 13:27:02;;;;;;;9.30;5.87;;;;;;;;;;5111184;28;20880;-53
2021/07/02 13:29:31;;;;;;;6.10;4.97;;;;;;;;;;5110951;28;20395;-53
2021/07/02 13:31:57;;;;;;;5.70;5.10;;;;;;;;;;5110619;28;20456;-55
2021/07/02 13:34:24;;;;;;;5.87;5.10;;;;;;;;;;5092300;28;20885;-53
2021/07/02 13:36:57;;;;;;;6.53;5.60;;;;;;;;;;5110951;28;20413;-52
2021/07/02 13:39:23;;;;;;;9.37;6.20;;;;;;;;;;5111108;28;20395;-52
2021/07/02 13:42:00;;;;;;;6.20;5.60;;;;;;;;;;5110872;28;20434;-53
2021/07/02 13:44:26;;;;;;;9.27;6.90;;;;;;;;;;5110679;28;20180;-53
2021/07/02 13:47:03;;;;;;;7.77;6.93;;;;;;;;;;5110881;28;20410;-52
2021/07/02 13:49:29;;;;;;;7.13;6.43;;;;;;;;;;5111022;28;20454;-52
2021/07/02 13:51:55;;;;;;;8.00;6.70;;;;;;;;;;5110856;28;20422;-54
2021/07/02 13:54:21;;;;;;;8.90;6.63;;;;;;;;;;5110606;28;20935;-52
2021/07/02 13:56:50;;;;;;;7.20;6.50;;;;;;;;;;5110917;28;20463;-52
2021/07/02 13:59:20;;;;;;;9.03;6.50;;;;;;;;;;5110947;28;20851;-52
2021/07/02 14:01:46;;;;;;;8.83;7.40;;;;;;;;;;5110663;28;20410;-54
2021/07/02 14:04:12;;;;;;;6.73;6.23;;;;;;;;;;5110372;28;20419;-54
2021/07/02 14:06:39;;;;;;;8.20;6.93;;;;;;;;;;5110955;28;20470;-54
2021/07/02 14:09:06;;;;;;;7.73;6.93;;;;;;;;;;5110782;28;20399;-52
2021/07/02 14:11:33;;;;;;;7.90;7.17;;;;;;;;;;5110152;28;20426;-52
2021/07/02 14:13:59;;;;;;;9.43;8.20;;;;;;;;;;5110548;28;20437;-52
2021/07/02 14:16:25;;;;;;;10.67;9.27;;;;;;;;;;5110800;28;20829;-52
2021/07/02 14:18:51;;;;;;;12.13;7.50;;;;;;;;;;5111139;28;20405;-52
2021/07/02 14:21:17;;;;;;;9.80;6.77;;;;;;;;;;5111069;28;20434;-52
2021/07/02 14:23:43;;;;;;;8.00;7.20;;;;;;;;;;5110456;28;20449;-52
2021/07/02 14:26:09;;;;;;;9.43;8.40;;;;;;;;;;5110649;28;20808;-52
2021/07/02 14:28:36;;;;;;;8.80;7.90;;;;;;;;;;5110721;28;20413;-52
2021/07/02 14:31:03;;;;;;;9.50;8.50;;;;;;;;;;5110586;28;20405;-52
2021/07/02 14:33:29;;;;;;;8.63;7.83;;;;;;;;;;5110371;28;20425;-54